NEW HOGAN LAKE (NHG)

Elevation: 554' · CALAVERAS R basin · Operator: US Army Corps of Engineers

Provisional data, subject to change.
Query executed Saturday at 13:36:38   clock

Select a sensor type for a plot of data.
Note: Reservoir Flows are daily averages.

Earlier

Date RES ELE    STORAGE    RES CHG    TOC STO    ABV TOC    OUTFLOW    INFLOW    FNF    PPT INC    TEMP MN    TEMP MX   
 FEET   AF   AF   AF   AF   CFS   CFS   CFS   INCHES   DEG F   DEG F  
06/05/2015 622.84 56634 -240 317100 -260466 92 -16 -16 0.00 15 30
06/06/2015 622.68 56378 -256 317100 -260722 117 2 2 0.00 14 32
06/07/2015 622.49 56075 -303 317100 -261025 142 6 6 0.01 16 35
06/08/2015 622.23 55662 -413 317100 -261438 172 -16 -16 0.04 20 39
06/09/2015 622.04 55361 -301 317100 -261739 147 9 9 0.00 22 33
06/10/2015 621.96 55235 -126 317100 -261865 80 22 22 0.00 19 24
06/11/2015 621.90 55140 -95 317100 -261960 35 4 4 0.02 17 34
06/12/2015 621.84 55046 -94 317100 -262054 36 8 8 0.03 19 39
06/13/2015 621.74 54888 -158 317100 -262212 37 -23 -23 0.00 20 38
06/14/2015 621.69 54810 -78 317100 -262290 42 20 20 0.00 15 34
06/15/2015 621.59 54653 -157 317100 -262447 46 -16 -16 0.00 12 34
06/16/2015 621.53 54559 -94 317100 -262541 46 15 15 0.00 13 35
06/17/2015 621.45 54434 -125 317100 -262666 47 2 2 0.00 15 37
06/18/2015 621.36 54293 -141 317100 -262807 48 -4 -4 0.00 16 35
06/19/2015 621.28 54168 -125 317100 -262932 49 4 4 0.00 13 34
06/20/2015 621.19 54028 -140 317100 -263072 53 2 2 0.00 15 37
06/21/2015 621.10 53888 -140 317100 -263212 50 -2 -2 0.00 16 31
06/22/2015 621.02 53763 -125 317100 -263337 47 2 2 0.00 14 32
06/23/2015 620.94 53639 -124 317100 -263461 45 0 0 0.00 14 35
06/24/2015 620.87 53531 -108 317100 -263569 47 9 9 0.00 17 37
06/25/2015 620.80 53423 -108 317100 -263677 47 13 13 0.00 19 40
06/26/2015 620.71 53283 -140 317100 -263817 45 -6 -- 0.00 21 40
06/27/2015 620.62 53145 -138 317100 -263955 51 -1 -- 0.00 21 35
06/28/2015 620.54 53021 -124 317100 -264079 65 18 -- 0.00 20 35
06/29/2015 620.15 52423 -598 317100 -264677 265 -19 -19 0.00 18 37
06/30/2015 619.69 51722 -701 317100 -265378 358 24 24 0.02 22 41
07/01/2015 619.12 50862 -860 317100 -266238 419 5 -- 0.00 24 42
07/02/2015 618.76 50323 -539 317100 -266777 290 35 -- 0.00 25 37
07/03/2015 618.38 49757 -566 317100 -267343 285 19 -- 0.00 21 37
07/04/2015 -- -- -- -- -- -- -- -- -- -- --

Later | Latest

Warning! This data is preliminary and subject to revision.

Show NHG Map | Plot NHG Data | 1 Month NHG Data | Real-Time NHG Data | NHG Info